sensor_id;sensor_type;location;lat;lon;timestamp;P1;durP1;ratioP1;P2;durP2;ratioP2
9374;SDS011;4727;51.202;6.344;2023-05-10T00:01:32;30.03;;;20.47;;
9374;SDS011;4727;51.202;6.344;2023-05-10T00:03:58;29.10;;;19.63;;
9374;SDS011;4727;51.202;6.344;2023-05-10T00:06:24;29.50;;;19.70;;
9374;SDS011;4727;51.202;6.344;2023-05-10T00:08:50;29.53;;;18.47;;
9374;SDS011;4727;51.202;6.344;2023-05-10T00:11:16;28.93;;;19.80;;
9374;SDS011;4727;51.202;6.344;2023-05-10T00:13:42;26.87;;;19.13;;
9374;SDS011;4727;51.202;6.344;2023-05-10T00:16:08;30.43;;;20.17;;
9374;SDS011;4727;51.202;6.344;2023-05-10T00:18:34;23.67;;;18.07;;
9374;SDS011;4727;51.202;6.344;2023-05-10T00:21:00;22.70;;;15.80;;
9374;SDS011;4727;51.202;6.344;2023-05-10T00:23:26;25.63;;;17.63;;
9374;SDS011;4727;51.202;6.344;2023-05-10T00:25:51;19.87;;;14.70;;
9374;SDS011;4727;51.202;6.344;2023-05-10T00:28:17;21.17;;;15.10;;
9374;SDS011;4727;51.202;6.344;2023-05-10T00:30:43;22.00;;;15.03;;
9374;SDS011;4727;51.202;6.344;2023-05-10T00:33:09;20.17;;;13.47;;
9374;SDS011;4727;51.202;6.344;2023-05-10T00:35:36;19.13;;;12.77;;
9374;SDS011;4727;51.202;6.344;2023-05-10T00:38:02;16.77;;;12.47;;
9374;SDS011;4727;51.202;6.344;2023-05-10T00:40:28;14.40;;;11.30;;
9374;SDS011;4727;51.202;6.344;2023-05-10T00:42:56;15.20;;;10.57;;
9374;SDS011;4727;51.202;6.344;2023-05-10T00:45:23;13.37;;;9.53;;
9374;SDS011;4727;51.202;6.344;2023-05-10T00:47:50;12.17;;;8.67;;
9374;SDS011;4727;51.202;6.344;2023-05-10T00:50:19;10.53;;;8.83;;
9374;SDS011;4727;51.202;6.344;2023-05-10T00:52:45;11.80;;;8.80;;
9374;SDS011;4727;51.202;6.344;2023-05-10T00:55:11;11.50;;;8.57;;
9374;SDS011;4727;51.202;6.344;2023-05-10T00:57:38;10.90;;;8.93;;
9374;SDS011;4727;51.202;6.344;2023-05-10T01:00:04;10.37;;;8.60;;
9374;SDS011;4727;51.202;6.344;2023-05-10T01:02:30;13.77;;;9.63;;
9374;SDS011;4727;51.202;6.344;2023-05-10T01:04:56;12.13;;;8.70;;
9374;SDS011;4727;51.202;6.344;2023-05-10T01:07:22;13.40;;;8.93;;
9374;SDS011;4727;51.202;6.344;2023-05-10T01:09:48;14.13;;;9.50;;
9374;SDS011;4727;51.202;6.344;2023-05-10T01:12:14;14.67;;;9.63;;
9374;SDS011;4727;51.202;6.344;2023-05-10T01:14:41;16.63;;;10.83;;
9374;SDS011;4727;51.202;6.344;2023-05-10T01:17:07;15.77;;;9.80;;
9374;SDS011;4727;51.202;6.344;2023-05-10T01:19:34;15.80;;;10.93;;
9374;SDS011;4727;51.202;6.344;2023-05-10T01:32:54;13.73;;;10.80;;
9374;SDS011;4727;51.202;6.344;2023-05-10T01:38:18;14.63;;;10.73;;
9374;SDS011;4727;51.202;6.344;2023-05-10T01:40:37;14.83;;;10.93;;
9374;SDS011;4727;51.202;6.344;2023-05-10T01:43:07;15.00;;;10.70;;
9374;SDS011;4727;51.202;6.344;2023-05-10T01:45:37;16.30;;;10.63;;
9374;SDS011;4727;51.202;6.344;2023-05-10T01:48:06;17.63;;;11.40;;
9374;SDS011;4727;51.202;6.344;2023-05-10T01:50:33;16.23;;;11.43;;
9374;SDS011;4727;51.202;6.344;2023-05-10T01:53:00;16.97;;;12.33;;
9374;SDS011;4727;51.202;6.344;2023-05-10T01:55:28;25.83;;;13.40;;
9374;SDS011;4727;51.202;6.344;2023-05-10T01:58:03;21.53;;;13.43;;
9374;SDS011;4727;51.202;6.344;2023-05-10T02:00:30;23.70;;;13.47;;
9374;SDS011;4727;51.202;6.344;2023-05-10T02:02:56;21.90;;;14.50;;
9374;SDS011;4727;51.202;6.344;2023-05-10T02:05:22;24.70;;;14.50;;
9374;SDS011;4727;51.202;6.344;2023-05-10T02:07:50;28.17;;;14.83;;
9374;SDS011;4727;51.202;6.344;2023-05-10T02:10:17;25.00;;;14.70;;
9374;SDS011;4727;51.202;6.344;2023-05-10T02:12:45;24.10;;;14.93;;
9374;SDS011;4727;51.202;6.344;2023-05-10T02:15:14;25.37;;;16.00;;
9374;SDS011;4727;51.202;6.344;2023-05-10T02:17:41;27.70;;;14.20;;
9374;SDS011;4727;51.202;6.344;2023-05-10T02:20:07;22.37;;;14.97;;
9374;SDS011;4727;51.202;6.344;2023-05-10T02:22:34;25.67;;;16.00;;
9374;SDS011;4727;51.202;6.344;2023-05-10T02:25:01;25.80;;;16.27;;
9374;SDS011;4727;51.202;6.344;2023-05-10T02:27:28;33.37;;;18.10;;
9374;SDS011;4727;51.202;6.344;2023-05-10T02:29:55;29.47;;;17.43;;
9374;SDS011;4727;51.202;6.344;2023-05-10T02:32:22;33.60;;;18.17;;
9374;SDS011;4727;51.202;6.344;2023-05-10T02:34:50;32.17;;;17.13;;
9374;SDS011;4727;51.202;6.344;2023-05-10T02:37:17;35.53;;;18.13;;
9374;SDS011;4727;51.202;6.344;2023-05-10T02:39:45;36.43;;;18.80;;
9374;SDS011;4727;51.202;6.344;2023-05-10T02:42:13;36.07;;;19.43;;
9374;SDS011;4727;51.202;6.344;2023-05-10T02:44:41;36.97;;;18.67;;
9374;SDS011;4727;51.202;6.344;2023-05-10T02:47:08;35.43;;;19.27;;
9374;SDS011;4727;51.202;6.344;2023-05-10T02:49:34;40.73;;;21.23;;
9374;SDS011;4727;51.202;6.344;2023-05-10T02:52:01;38.87;;;19.03;;
9374;SDS011;4727;51.202;6.344;2023-05-10T02:54:29;44.20;;;20.57;;
9374;SDS011;4727;51.202;6.344;2023-05-10T02:56:59;44.83;;;21.63;;
9374;SDS011;4727;51.202;6.344;2023-05-10T02:59:26;47.03;;;21.47;;
9374;SDS011;4727;51.202;6.344;2023-05-10T03:01:52;45.30;;;21.70;;
9374;SDS011;4727;51.202;6.344;2023-05-10T03:04:18;46.80;;;21.23;;
9374;SDS011;4727;51.202;6.344;2023-05-10T03:06:44;46.83;;;22.67;;
9374;SDS011;4727;51.202;6.344;2023-05-10T03:09:10;51.47;;;23.73;;
9374;SDS011;4727;51.202;6.344;2023-05-10T03:11:55;47.80;;;22.63;;
9374;SDS011;4727;51.202;6.344;2023-05-10T03:19:56;55.03;;;25.03;;
9374;SDS011;4727;51.202;6.344;2023-05-10T03:22:34;53.60;;;26.60;;
9374;SDS011;4727;51.202;6.344;2023-05-10T03:25:03;56.03;;;28.50;;
9374;SDS011;4727;51.202;6.344;2023-05-10T03:27:30;53.97;;;27.83;;
9374;SDS011;4727;51.202;6.344;2023-05-10T03:29:56;59.33;;;28.67;;
9374;SDS011;4727;51.202;6.344;2023-05-10T03:32:23;55.40;;;27.70;;
9374;SDS011;4727;51.202;6.344;2023-05-10T03:34:49;60.20;;;28.87;;
9374;SDS011;4727;51.202;6.344;2023-05-10T03:37:15;54.20;;;29.13;;
9374;SDS011;4727;51.202;6.344;2023-05-10T03:39:41;57.13;;;28.30;;
9374;SDS011;4727;51.202;6.344;2023-05-10T03:42:07;56.70;;;28.47;;
9374;SDS011;4727;51.202;6.344;2023-05-10T03:44:36;57.13;;;27.63;;
9374;SDS011;4727;51.202;6.344;2023-05-10T03:47:03;54.27;;;28.13;;
9374;SDS011;4727;51.202;6.344;2023-05-10T03:49:29;56.40;;;27.70;;
9374;SDS011;4727;51.202;6.344;2023-05-10T03:51:55;54.77;;;29.10;;
9374;SDS011;4727;51.202;6.344;2023-05-10T03:54:21;56.90;;;29.33;;
9374;SDS011;4727;51.202;6.344;2023-05-10T03:56:47;53.73;;;28.90;;
9374;SDS011;4727;51.202;6.344;2023-05-10T03:59:13;59.47;;;29.70;;
9374;SDS011;4727;51.202;6.344;2023-05-10T04:01:39;49.70;;;26.97;;
9374;SDS011;4727;51.202;6.344;2023-05-10T04:04:05;43.93;;;25.50;;
9374;SDS011;4727;51.202;6.344;2023-05-10T04:06:31;48.13;;;25.97;;
9374;SDS011;4727;51.202;6.344;2023-05-10T04:08:57;41.53;;;24.23;;
9374;SDS011;4727;51.202;6.344;2023-05-10T04:11:29;38.70;;;24.40;;
9374;SDS011;4727;51.202;6.344;2023-05-10T04:13:55;41.63;;;25.83;;
9374;SDS011;4727;51.202;6.344;2023-05-10T04:16:21;44.77;;;25.33;;
9374;SDS011;4727;51.202;6.344;2023-05-10T04:18:47;45.57;;;24.63;;
9374;SDS011;4727;51.202;6.344;2023-05-10T04:21:13;40.77;;;24.97;;
9374;SDS011;4727;51.202;6.344;2023-05-10T04:23:39;39.87;;;23.60;;
9374;SDS011;4727;51.202;6.344;2023-05-10T04:26:05;42.97;;;23.73;;
9374;SDS011;4727;51.202;6.344;2023-05-10T04:28:31;43.37;;;24.33;;
9374;SDS011;4727;51.202;6.344;2023-05-10T04:31:04;37.47;;;23.07;;
9374;SDS011;4727;51.202;6.344;2023-05-10T04:33:30;39.57;;;23.57;;
9374;SDS011;4727;51.202;6.344;2023-05-10T04:35:56;36.40;;;22.87;;
9374;SDS011;4727;51.202;6.344;2023-05-10T04:38:22;33.07;;;21.23;;
9374;SDS011;4727;51.202;6.344;2023-05-10T04:40:48;31.57;;;20.93;;
9374;SDS011;4727;51.202;6.344;2023-05-10T04:43:14;34.30;;;22.80;;
9374;SDS011;4727;51.202;6.344;2023-05-10T04:45:40;32.97;;;21.67;;
9374;SDS011;4727;51.202;6.344;2023-05-10T04:48:06;31.83;;;20.80;;
9374;SDS011;4727;51.202;6.344;2023-05-10T04:50:32;32.27;;;20.30;;
9374;SDS011;4727;51.202;6.344;2023-05-10T04:52:58;33.47;;;20.23;;
9374;SDS011;4727;51.202;6.344;2023-05-10T04:55:24;34.53;;;20.47;;
9374;SDS011;4727;51.202;6.344;2023-05-10T04:57:51;36.87;;;20.83;;
9374;SDS011;4727;51.202;6.344;2023-05-10T05:00:17;35.23;;;21.37;;
9374;SDS011;4727;51.202;6.344;2023-05-10T05:02:44;34.87;;;20.83;;
9374;SDS011;4727;51.202;6.344;2023-05-10T05:05:10;30.77;;;19.70;;
9374;SDS011;4727;51.202;6.344;2023-05-10T05:07:36;32.73;;;21.70;;
9374;SDS011;4727;51.202;6.344;2023-05-10T05:10:03;33.03;;;21.57;;
9374;SDS011;4727;51.202;6.344;2023-05-10T05:12:29;33.97;;;21.83;;
9374;SDS011;4727;51.202;6.344;2023-05-10T05:14:55;34.50;;;21.43;;
9374;SDS011;4727;51.202;6.344;2023-05-10T05:17:21;35.63;;;21.40;;
9374;SDS011;4727;51.202;6.344;2023-05-10T05:19:47;33.63;;;21.50;;
9374;SDS011;4727;51.202;6.344;2023-05-10T05:22:13;36.07;;;22.90;;
9374;SDS011;4727;51.202;6.344;2023-05-10T05:24:39;39.27;;;23.03;;
9374;SDS011;4727;51.202;6.344;2023-05-10T05:27:05;39.77;;;23.10;;
9374;SDS011;4727;51.202;6.344;2023-05-10T05:29:31;35.20;;;21.93;;
9374;SDS011;4727;51.202;6.344;2023-05-10T05:31:57;43.80;;;23.80;;
9374;SDS011;4727;51.202;6.344;2023-05-10T05:34:23;42.80;;;23.30;;
9374;SDS011;4727;51.202;6.344;2023-05-10T05:36:50;42.97;;;23.13;;
9374;SDS011;4727;51.202;6.344;2023-05-10T05:39:16;38.93;;;22.87;;
9374;SDS011;4727;51.202;6.344;2023-05-10T05:41:42;46.37;;;24.60;;
9374;SDS011;4727;51.202;6.344;2023-05-10T05:44:08;45.23;;;23.10;;
9374;SDS011;4727;51.202;6.344;2023-05-10T05:46:35;45.40;;;23.67;;
9374;SDS011;4727;51.202;6.344;2023-05-10T05:49:01;53.53;;;24.50;;
9374;SDS011;4727;51.202;6.344;2023-05-10T05:51:26;49.00;;;24.90;;
9374;SDS011;4727;51.202;6.344;2023-05-10T05:53:52;49.87;;;24.37;;
9374;SDS011;4727;51.202;6.344;2023-05-10T05:56:19;50.43;;;25.23;;
9374;SDS011;4727;51.202;6.344;2023-05-10T05:58:49;52.57;;;25.57;;
9374;SDS011;4727;51.202;6.344;2023-05-10T06:01:15;55.47;;;25.83;;
9374;SDS011;4727;51.202;6.344;2023-05-10T06:03:41;55.30;;;26.60;;
9374;SDS011;4727;51.202;6.344;2023-05-10T06:06:07;52.43;;;26.33;;
9374;SDS011;4727;51.202;6.344;2023-05-10T06:08:33;55.07;;;25.60;;
9374;SDS011;4727;51.202;6.344;2023-05-10T06:11:00;48.47;;;24.87;;
9374;SDS011;4727;51.202;6.344;2023-05-10T06:13:26;57.43;;;26.37;;
9374;SDS011;4727;51.202;6.344;2023-05-10T06:15:57;50.77;;;24.57;;
9374;SDS011;4727;51.202;6.344;2023-05-10T06:18:23;47.97;;;24.20;;
9374;SDS011;4727;51.202;6.344;2023-05-10T06:20:49;48.23;;;24.63;;
9374;SDS011;4727;51.202;6.344;2023-05-10T06:23:15;46.93;;;24.10;;
9374;SDS011;4727;51.202;6.344;2023-05-10T06:25:41;49.43;;;23.80;;
9374;SDS011;4727;51.202;6.344;2023-05-10T06:28:07;47.27;;;23.10;;
9374;SDS011;4727;51.202;6.344;2023-05-10T06:30:33;47.87;;;22.47;;
9374;SDS011;4727;51.202;6.344;2023-05-10T06:32:59;47.03;;;24.37;;
9374;SDS011;4727;51.202;6.344;2023-05-10T06:35:25;58.97;;;26.23;;
9374;SDS011;4727;51.202;6.344;2023-05-10T06:37:51;64.03;;;30.60;;
9374;SDS011;4727;51.202;6.344;2023-05-10T06:40:17;55.73;;;29.27;;
9374;SDS011;4727;51.202;6.344;2023-05-10T06:42:43;57.07;;;28.97;;
9374;SDS011;4727;51.202;6.344;2023-05-10T06:45:10;64.50;;;30.43;;
9374;SDS011;4727;51.202;6.344;2023-05-10T06:47:36;57.17;;;27.90;;
9374;SDS011;4727;51.202;6.344;2023-05-10T06:50:02;67.67;;;30.63;;
9374;SDS011;4727;51.202;6.344;2023-05-10T06:52:28;59.50;;;30.03;;
9374;SDS011;4727;51.202;6.344;2023-05-10T06:54:54;62.67;;;30.00;;
9374;SDS011;4727;51.202;6.344;2023-05-10T06:57:20;58.30;;;30.23;;
9374;SDS011;4727;51.202;6.344;2023-05-10T06:59:46;55.33;;;29.57;;
9374;SDS011;4727;51.202;6.344;2023-05-10T07:02:12;60.23;;;31.30;;
9374;SDS011;4727;51.202;6.344;2023-05-10T07:04:39;61.37;;;31.63;;
9374;SDS011;4727;51.202;6.344;2023-05-10T07:07:05;60.37;;;30.50;;
9374;SDS011;4727;51.202;6.344;2023-05-10T07:09:31;60.70;;;31.20;;
9374;SDS011;4727;51.202;6.344;2023-05-10T07:11:57;61.23;;;29.50;;
9374;SDS011;4727;51.202;6.344;2023-05-10T07:14:23;65.40;;;31.27;;
9374;SDS011;4727;51.202;6.344;2023-05-10T07:16:49;60.63;;;31.67;;
9374;SDS011;4727;51.202;6.344;2023-05-10T07:19:15;66.73;;;32.40;;
9374;SDS011;4727;51.202;6.344;2023-05-10T07:21:41;63.37;;;33.07;;
9374;SDS011;4727;51.202;6.344;2023-05-10T07:24:08;66.63;;;34.67;;
9374;SDS011;4727;51.202;6.344;2023-05-10T07:26:34;67.67;;;34.77;;
9374;SDS011;4727;51.202;6.344;2023-05-10T07:29:00;66.53;;;34.43;;
9374;SDS011;4727;51.202;6.344;2023-05-10T07:31:26;67.87;;;34.53;;
9374;SDS011;4727;51.202;6.344;2023-05-10T07:33:52;72.37;;;35.27;;
9374;SDS011;4727;51.202;6.344;2023-05-10T07:36:18;67.50;;;32.73;;
9374;SDS011;4727;51.202;6.344;2023-05-10T07:38:44;62.10;;;35.27;;
9374;SDS011;4727;51.202;6.344;2023-05-10T07:41:11;64.50;;;33.93;;
9374;SDS011;4727;51.202;6.344;2023-05-10T07:43:37;57.77;;;32.13;;
9374;SDS011;4727;51.202;6.344;2023-05-10T07:46:03;57.50;;;32.17;;
9374;SDS011;4727;51.202;6.344;2023-05-10T07:48:30;64.03;;;33.90;;
9374;SDS011;4727;51.202;6.344;2023-05-10T07:50:56;67.73;;;33.00;;
9374;SDS011;4727;51.202;6.344;2023-05-10T07:53:22;64.83;;;33.90;;
9374;SDS011;4727;51.202;6.344;2023-05-10T07:55:51;56.63;;;33.27;;
9374;SDS011;4727;51.202;6.344;2023-05-10T07:58:20;52.70;;;30.10;;
9374;SDS011;4727;51.202;6.344;2023-05-10T08:00:46;46.67;;;29.13;;
9374;SDS011;4727;51.202;6.344;2023-05-10T08:03:12;42.33;;;26.47;;
9374;SDS011;4727;51.202;6.344;2023-05-10T08:05:38;39.13;;;25.50;;
9374;SDS011;4727;51.202;6.344;2023-05-10T08:08:04;36.83;;;24.40;;
9374;SDS011;4727;51.202;6.344;2023-05-10T08:10:30;34.67;;;23.93;;
9374;SDS011;4727;51.202;6.344;2023-05-10T08:12:56;36.03;;;24.03;;
9374;SDS011;4727;51.202;6.344;2023-05-10T08:15:23;34.27;;;23.43;;
9374;SDS011;4727;51.202;6.344;2023-05-10T08:17:50;35.57;;;22.73;;
9374;SDS011;4727;51.202;6.344;2023-05-10T08:20:16;34.70;;;23.10;;
9374;SDS011;4727;51.202;6.344;2023-05-10T08:22:44;31.33;;;21.50;;
9374;SDS011;4727;51.202;6.344;2023-05-10T08:25:10;33.57;;;23.03;;
9374;SDS011;4727;51.202;6.344;2023-05-10T08:27:36;29.90;;;21.70;;
9374;SDS011;4727;51.202;6.344;2023-05-10T08:30:02;34.40;;;22.83;;
9374;SDS011;4727;51.202;6.344;2023-05-10T08:32:28;36.93;;;23.90;;
9374;SDS011;4727;51.202;6.344;2023-05-10T08:34:54;32.80;;;21.50;;
9374;SDS011;4727;51.202;6.344;2023-05-10T08:37:22;32.93;;;21.30;;
9374;SDS011;4727;51.202;6.344;2023-05-10T08:39:48;26.83;;;19.43;;
9374;SDS011;4727;51.202;6.344;2023-05-10T08:42:15;25.83;;;19.10;;
9374;SDS011;4727;51.202;6.344;2023-05-10T08:44:42;24.50;;;19.57;;
9374;SDS011;4727;51.202;6.344;2023-05-10T08:47:08;26.87;;;19.37;;
9374;SDS011;4727;51.202;6.344;2023-05-10T08:49:34;21.80;;;18.43;;
9374;SDS011;4727;51.202;6.344;2023-05-10T08:52:03;26.93;;;19.50;;
9374;SDS011;4727;51.202;6.344;2023-05-10T08:54:33;22.13;;;17.20;;
9374;SDS011;4727;51.202;6.344;2023-05-10T08:57:00;25.43;;;18.23;;
9374;SDS011;4727;51.202;6.344;2023-05-10T08:59:26;21.00;;;17.37;;
9374;SDS011;4727;51.202;6.344;2023-05-10T09:01:53;21.03;;;16.80;;
9374;SDS011;4727;51.202;6.344;2023-05-10T09:04:20;26.37;;;18.93;;
9374;SDS011;4727;51.202;6.344;2023-05-10T09:06:46;20.87;;;17.10;;
9374;SDS011;4727;51.202;6.344;2023-05-10T09:09:12;24.33;;;17.23;;
9374;SDS011;4727;51.202;6.344;2023-05-10T09:11:38;25.17;;;19.33;;
9374;SDS011;4727;51.202;6.344;2023-05-10T09:14:04;31.17;;;20.97;;
9374;SDS011;4727;51.202;6.344;2023-05-10T09:16:30;25.47;;;20.43;;
9374;SDS011;4727;51.202;6.344;2023-05-10T09:18:56;30.97;;;21.97;;
9374;SDS011;4727;51.202;6.344;2023-05-10T09:21:22;30.47;;;21.93;;
9374;SDS011;4727;51.202;6.344;2023-05-10T09:23:48;36.23;;;23.87;;
9374;SDS011;4727;51.202;6.344;2023-05-10T09:26:15;33.40;;;23.17;;
9374;SDS011;4727;51.202;6.344;2023-05-10T09:28:54;32.33;;;23.33;;
9374;SDS011;4727;51.202;6.344;2023-05-10T09:31:21;31.67;;;22.17;;
9374;SDS011;4727;51.202;6.344;2023-05-10T09:33:47;31.37;;;22.00;;
9374;SDS011;4727;51.202;6.344;2023-05-10T09:36:14;35.23;;;23.37;;
9374;SDS011;4727;51.202;6.344;2023-05-10T09:38:49;31.27;;;21.23;;
9374;SDS011;4727;51.202;6.344;2023-05-10T09:41:23;28.63;;;19.60;;
9374;SDS011;4727;51.202;6.344;2023-05-10T09:43:50;29.43;;;21.77;;
9374;SDS011;4727;51.202;6.344;2023-05-10T09:46:16;31.40;;;23.03;;
9374;SDS011;4727;51.202;6.344;2023-05-10T09:48:45;33.47;;;22.97;;
9374;SDS011;4727;51.202;6.344;2023-05-10T09:53:47;28.40;;;21.57;;
9374;SDS011;4727;51.202;6.344;2023-05-10T09:56:32;29.83;;;22.03;;
9374;SDS011;4727;51.202;6.344;2023-05-10T09:59:02;33.10;;;23.10;;
9374;SDS011;4727;51.202;6.344;2023-05-10T10:01:28;31.20;;;21.93;;
9374;SDS011;4727;51.202;6.344;2023-05-10T10:03:55;33.37;;;23.13;;
9374;SDS011;4727;51.202;6.344;2023-05-10T10:06:23;32.90;;;24.67;;
9374;SDS011;4727;51.202;6.344;2023-05-10T10:08:49;33.17;;;23.23;;
9374;SDS011;4727;51.202;6.344;2023-05-10T10:11:16;32.50;;;22.23;;
9374;SDS011;4727;51.202;6.344;2023-05-10T10:13:42;30.93;;;22.33;;
9374;SDS011;4727;51.202;6.344;2023-05-10T10:16:08;33.77;;;22.30;;
9374;SDS011;4727;51.202;6.344;2023-05-10T10:18:35;32.50;;;23.30;;
9374;SDS011;4727;51.202;6.344;2023-05-10T10:21:04;32.50;;;24.67;;
9374;SDS011;4727;51.202;6.344;2023-05-10T10:23:31;31.93;;;22.57;;
9374;SDS011;4727;51.202;6.344;2023-05-10T10:25:57;34.17;;;23.63;;
9374;SDS011;4727;51.202;6.344;2023-05-10T10:28:25;31.50;;;23.13;;
9374;SDS011;4727;51.202;6.344;2023-05-10T10:30:52;31.37;;;22.13;;
9374;SDS011;4727;51.202;6.344;2023-05-10T10:35:57;31.57;;;24.50;;
9374;SDS011;4727;51.202;6.344;2023-05-10T10:38:24;31.80;;;23.33;;
9374;SDS011;4727;51.202;6.344;2023-05-10T10:41:04;33.40;;;24.60;;
9374;SDS011;4727;51.202;6.344;2023-05-10T10:43:33;31.37;;;25.40;;
9374;SDS011;4727;51.202;6.344;2023-05-10T10:48:38;32.53;;;23.83;;
9374;SDS011;4727;51.202;6.344;2023-05-10T10:51:07;32.83;;;23.77;;
9374;SDS011;4727;51.202;6.344;2023-05-10T10:53:33;29.30;;;22.87;;
9374;SDS011;4727;51.202;6.344;2023-05-10T10:56:33;30.40;;;22.17;;
9374;SDS011;4727;51.202;6.344;2023-05-10T10:58:52;30.67;;;23.70;;
9374;SDS011;4727;51.202;6.344;2023-05-10T11:01:18;30.87;;;23.87;;
9374;SDS011;4727;51.202;6.344;2023-05-10T11:06:30;30.97;;;24.33;;
9374;SDS011;4727;51.202;6.344;2023-05-10T11:08:59;36.70;;;25.77;;
9374;SDS011;4727;51.202;6.344;2023-05-10T11:11:30;31.73;;;24.70;;
9374;SDS011;4727;51.202;6.344;2023-05-10T11:14:02;36.37;;;25.50;;
9374;SDS011;4727;51.202;6.344;2023-05-10T11:16:28;33.83;;;24.80;;
9374;SDS011;4727;51.202;6.344;2023-05-10T11:19:09;32.47;;;24.80;;
9374;SDS011;4727;51.202;6.344;2023-05-10T11:21:44;30.20;;;23.30;;
9374;SDS011;4727;51.202;6.344;2023-05-10T11:24:14;27.73;;;22.23;;
9374;SDS011;4727;51.202;6.344;2023-05-10T11:26:41;27.23;;;21.77;;
9374;SDS011;4727;51.202;6.344;2023-05-10T11:29:07;28.87;;;24.13;;
9374;SDS011;4727;51.202;6.344;2023-05-10T11:31:34;28.90;;;22.87;;
9374;SDS011;4727;51.202;6.344;2023-05-10T11:34:00;31.40;;;22.53;;
9374;SDS011;4727;51.202;6.344;2023-05-10T11:36:27;35.47;;;22.33;;
9374;SDS011;4727;51.202;6.344;2023-05-10T11:38:54;28.20;;;22.13;;
9374;SDS011;4727;51.202;6.344;2023-05-10T11:41:21;29.90;;;22.37;;
9374;SDS011;4727;51.202;6.344;2023-05-10T11:43:49;28.30;;;21.93;;
9374;SDS011;4727;51.202;6.344;2023-05-10T11:46:15;27.00;;;20.80;;
9374;SDS011;4727;51.202;6.344;2023-05-10T11:48:42;29.20;;;23.37;;
9374;SDS011;4727;51.202;6.344;2023-05-10T11:51:08;29.53;;;21.67;;
9374;SDS011;4727;51.202;6.344;2023-05-10T11:53:34;27.73;;;23.03;;
9374;SDS011;4727;51.202;6.344;2023-05-10T11:58:30;29.00;;;22.60;;
9374;SDS011;4727;51.202;6.344;2023-05-10T12:00:56;30.43;;;23.10;;
9374;SDS011;4727;51.202;6.344;2023-05-10T12:03:22;25.00;;;20.00;;
9374;SDS011;4727;51.202;6.344;2023-05-10T12:05:48;23.13;;;18.70;;
9374;SDS011;4727;51.202;6.344;2023-05-10T12:08:15;24.03;;;18.03;;
9374;SDS011;4727;51.202;6.344;2023-05-10T12:10:41;22.60;;;17.70;;
9374;SDS011;4727;51.202;6.344;2023-05-10T12:13:11;22.73;;;17.30;;
9374;SDS011;4727;51.202;6.344;2023-05-10T12:15:38;20.60;;;16.30;;
9374;SDS011;4727;51.202;6.344;2023-05-10T12:18:04;20.60;;;17.43;;
9374;SDS011;4727;51.202;6.344;2023-05-10T12:20:30;20.07;;;16.70;;
9374;SDS011;4727;51.202;6.344;2023-05-10T12:22:57;18.67;;;15.90;;
9374;SDS011;4727;51.202;6.344;2023-05-10T12:25:29;20.53;;;16.30;;
9374;SDS011;4727;51.202;6.344;2023-05-10T12:27:55;19.10;;;16.80;;
9374;SDS011;4727;51.202;6.344;2023-05-10T12:30:25;17.70;;;14.50;;
9374;SDS011;4727;51.202;6.344;2023-05-10T12:32:52;16.90;;;14.10;;
9374;SDS011;4727;51.202;6.344;2023-05-10T12:35:18;16.43;;;14.40;;
9374;SDS011;4727;51.202;6.344;2023-05-10T12:37:48;15.30;;;13.30;;
9374;SDS011;4727;51.202;6.344;2023-05-10T12:40:15;19.33;;;13.93;;
9374;SDS011;4727;51.202;6.344;2023-05-10T12:42:41;14.43;;;12.50;;
9374;SDS011;4727;51.202;6.344;2023-05-10T12:45:07;13.93;;;12.60;;
9374;SDS011;4727;51.202;6.344;2023-05-10T12:47:34;13.43;;;11.93;;
9374;SDS011;4727;51.202;6.344;2023-05-10T12:50:00;13.87;;;11.87;;
9374;SDS011;4727;51.202;6.344;2023-05-10T12:52:27;13.20;;;10.80;;
9374;SDS011;4727;51.202;6.344;2023-05-10T12:54:53;12.67;;;11.23;;
9374;SDS011;4727;51.202;6.344;2023-05-10T12:57:20;13.33;;;11.27;;
9374;SDS011;4727;51.202;6.344;2023-05-10T12:59:46;15.90;;;11.10;;
9374;SDS011;4727;51.202;6.344;2023-05-10T13:02:12;13.57;;;11.07;;
9374;SDS011;4727;51.202;6.344;2023-05-10T13:04:39;13.47;;;10.70;;
9374;SDS011;4727;51.202;6.344;2023-05-10T13:07:06;13.27;;;10.07;;
9374;SDS011;4727;51.202;6.344;2023-05-10T13:09:32;13.13;;;11.60;;
9374;SDS011;4727;51.202;6.344;2023-05-10T13:11:58;12.43;;;11.13;;
9374;SDS011;4727;51.202;6.344;2023-05-10T13:14:24;10.73;;;9.63;;
9374;SDS011;4727;51.202;6.344;2023-05-10T13:16:50;12.60;;;10.80;;
9374;SDS011;4727;51.202;6.344;2023-05-10T13:19:16;11.40;;;10.20;;
9374;SDS011;4727;51.202;6.344;2023-05-10T13:21:43;10.13;;;9.13;;
9374;SDS011;4727;51.202;6.344;2023-05-10T13:24:11;11.50;;;10.17;;
9374;SDS011;4727;51.202;6.344;2023-05-10T13:26:42;14.23;;;10.50;;
9374;SDS011;4727;51.202;6.344;2023-05-10T13:29:08;12.00;;;10.00;;
9374;SDS011;4727;51.202;6.344;2023-05-10T13:31:34;11.37;;;9.93;;
9374;SDS011;4727;51.202;6.344;2023-05-10T13:34:00;10.90;;;9.90;;
9374;SDS011;4727;51.202;6.344;2023-05-10T13:36:27;10.37;;;9.37;;
9374;SDS011;4727;51.202;6.344;2023-05-10T13:38:53;11.93;;;10.00;;
9374;SDS011;4727;51.202;6.344;2023-05-10T13:41:19;11.23;;;9.13;;
9374;SDS011;4727;51.202;6.344;2023-05-10T13:43:45;9.80;;;8.90;;
9374;SDS011;4727;51.202;6.344;2023-05-10T13:46:13;12.70;;;9.20;;
9374;SDS011;4727;51.202;6.344;2023-05-10T13:48:39;20.83;;;11.40;;
9374;SDS011;4727;51.202;6.344;2023-05-10T13:51:05;10.37;;;9.37;;
9374;SDS011;4727;51.202;6.344;2023-05-10T13:53:31;11.23;;;9.47;;
9374;SDS011;4727;51.202;6.344;2023-05-10T13:55:57;11.47;;;10.37;;
9374;SDS011;4727;51.202;6.344;2023-05-10T13:58:23;35.83;;;13.03;;
9374;SDS011;4727;51.202;6.344;2023-05-10T14:00:49;10.80;;;9.47;;
9374;SDS011;4727;51.202;6.344;2023-05-10T14:03:15;10.47;;;9.17;;
9374;SDS011;4727;51.202;6.344;2023-05-10T14:05:42;12.17;;;9.87;;
9374;SDS011;4727;51.202;6.344;2023-05-10T14:08:08;13.60;;;9.70;;
9374;SDS011;4727;51.202;6.344;2023-05-10T14:10:34;13.57;;;11.23;;
9374;SDS011;4727;51.202;6.344;2023-05-10T14:13:01;12.43;;;11.13;;
9374;SDS011;4727;51.202;6.344;2023-05-10T14:15:28;12.43;;;11.17;;
9374;SDS011;4727;51.202;6.344;2023-05-10T14:17:54;13.10;;;11.77;;
9374;SDS011;4727;51.202;6.344;2023-05-10T14:20:20;14.87;;;11.33;;
9374;SDS011;4727;51.202;6.344;2023-05-10T14:22:46;13.40;;;12.07;;
9374;SDS011;4727;51.202;6.344;2023-05-10T14:25:12;12.30;;;10.87;;
9374;SDS011;4727;51.202;6.344;2023-05-10T14:27:38;14.23;;;12.73;;
9374;SDS011;4727;51.202;6.344;2023-05-10T14:30:04;13.60;;;12.27;;
9374;SDS011;4727;51.202;6.344;2023-05-10T14:32:30;14.33;;;11.77;;
9374;SDS011;4727;51.202;6.344;2023-05-10T14:34:57;18.20;;;13.30;;
9374;SDS011;4727;51.202;6.344;2023-05-10T14:37:23;28.97;;;13.57;;
9374;SDS011;4727;51.202;6.344;2023-05-10T14:39:49;16.93;;;11.27;;
9374;SDS011;4727;51.202;6.344;2023-05-10T14:42:15;12.43;;;10.27;;
9374;SDS011;4727;51.202;6.344;2023-05-10T14:44:41;10.00;;;9.00;;
9374;SDS011;4727;51.202;6.344;2023-05-10T14:47:06;11.93;;;10.30;;
9374;SDS011;4727;51.202;6.344;2023-05-10T14:49:32;15.87;;;10.83;;
9374;SDS011;4727;51.202;6.344;2023-05-10T14:51:58;11.13;;;10.03;;
9374;SDS011;4727;51.202;6.344;2023-05-10T14:54:24;10.23;;;9.23;;
9374;SDS011;4727;51.202;6.344;2023-05-10T14:56:50;11.40;;;8.60;;
9374;SDS011;4727;51.202;6.344;2023-05-10T14:59:16;9.70;;;8.80;;
9374;SDS011;4727;51.202;6.344;2023-05-10T15:01:42;9.10;;;8.20;;
9374;SDS011;4727;51.202;6.344;2023-05-10T15:04:09;9.13;;;8.20;;
9374;SDS011;4727;51.202;6.344;2023-05-10T15:06:35;23.30;;;10.03;;
9374;SDS011;4727;51.202;6.344;2023-05-10T15:09:01;21.97;;;10.77;;
9374;SDS011;4727;51.202;6.344;2023-05-10T15:11:31;9.77;;;8.77;;
9374;SDS011;4727;51.202;6.344;2023-05-10T15:13:57;10.47;;;9.33;;
9374;SDS011;4727;51.202;6.344;2023-05-10T15:16:23;9.27;;;8.33;;
9374;SDS011;4727;51.202;6.344;2023-05-10T15:18:49;11.23;;;10.03;;
9374;SDS011;4727;51.202;6.344;2023-05-10T15:21:15;10.30;;;9.20;;